sensor_id;sensor_type;location;lat;lon;timestamp;temperature;humidity
62991;DHT22;49084;48.204;16.202;2023-03-23T00:00:07;7.10;99.90
62991;DHT22;49084;48.204;16.202;2023-03-23T00:02:33;7.00;99.90
62991;DHT22;49084;48.204;16.202;2023-03-23T00:05:05;7.00;99.90
62991;DHT22;49084;48.204;16.202;2023-03-23T00:07:33;7.00;99.90
62991;DHT22;49084;48.204;16.202;2023-03-23T00:09:59;6.90;99.90
62991;DHT22;49084;48.204;16.202;2023-03-23T00:12:29;6.90;99.90
62991;DHT22;49084;48.204;16.202;2023-03-23T00:15:03;6.90;99.90
62991;DHT22;49084;48.204;16.202;2023-03-23T00:17:29;6.80;99.90
62991;DHT22;49084;48.204;16.202;2023-03-23T00:19:55;6.80;99.90
62991;DHT22;49084;48.204;16.202;2023-03-23T00:22:21;6.70;99.90
62991;DHT22;49084;48.204;16.202;2023-03-23T00:24:50;6.70;99.90
62991;DHT22;49084;48.204;16.202;2023-03-23T00:27:17;6.70;99.90
62991;DHT22;49084;48.204;16.202;2023-03-23T00:29:43;6.60;99.90
62991;DHT22;49084;48.204;16.202;2023-03-23T00:32:11;6.60;99.90
62991;DHT22;49084;48.204;16.202;2023-03-23T00:34:42;6.60;99.90
62991;DHT22;49084;48.204;16.202;2023-03-23T00:37:09;6.50;99.90
62991;DHT22;49084;48.204;16.202;2023-03-23T00:39:37;6.50;99.90
62991;DHT22;49084;48.204;16.202;2023-03-23T00:42:03;6.50;99.90
62991;DHT22;49084;48.204;16.202;2023-03-23T00:44:31;6.50;99.90
62991;DHT22;49084;48.204;16.202;2023-03-23T00:46:57;6.50;99.90
62991;DHT22;49084;48.204;16.202;2023-03-23T00:49:25;6.40;99.90
62991;DHT22;49084;48.204;16.202;2023-03-23T00:51:56;6.40;99.90
62991;DHT22;49084;48.204;16.202;2023-03-23T00:54:22;6.40;99.90
62991;DHT22;49084;48.204;16.202;2023-03-23T00:56:48;6.30;99.90
62991;DHT22;49084;48.204;16.202;2023-03-23T00:59:14;6.30;99.90
62991;DHT22;49084;48.204;16.202;2023-03-23T01:01:40;6.30;99.90
62991;DHT22;49084;48.204;16.202;2023-03-23T01:04:06;6.30;99.90
62991;DHT22;49084;48.204;16.202;2023-03-23T01:06:35;6.20;99.90
62991;DHT22;49084;48.204;16.202;2023-03-23T01:09:04;6.20;99.90
62991;DHT22;49084;48.204;16.202;2023-03-23T01:11:31;6.20;99.90
62991;DHT22;49084;48.204;16.202;2023-03-23T01:13:57;6.10;99.90
62991;DHT22;49084;48.204;16.202;2023-03-23T01:16:23;6.10;99.90
62991;DHT22;49084;48.204;16.202;2023-03-23T01:18:49;6.10;99.90
62991;DHT22;49084;48.204;16.202;2023-03-23T01:21:16;6.10;99.90
62991;DHT22;49084;48.204;16.202;2023-03-23T01:23:43;6.00;99.90
62991;DHT22;49084;48.204;16.202;2023-03-23T01:26:20;6.00;99.90
62991;DHT22;49084;48.204;16.202;2023-03-23T01:28:46;6.00;99.90
62991;DHT22;49084;48.204;16.202;2023-03-23T01:31:15;6.00;99.90
62991;DHT22;49084;48.204;16.202;2023-03-23T01:33:42;6.00;99.90
62991;DHT22;49084;48.204;16.202;2023-03-23T01:36:11;5.90;99.90
62991;DHT22;49084;48.204;16.202;2023-03-23T01:38:37;6.00;99.90
62991;DHT22;49084;48.204;16.202;2023-03-23T01:41:03;6.00;99.90
62991;DHT22;49084;48.204;16.202;2023-03-23T01:43:30;5.90;99.90
62991;DHT22;49084;48.204;16.202;2023-03-23T01:45:55;5.90;99.90
62991;DHT22;49084;48.204;16.202;2023-03-23T01:48:28;5.80;99.90
62991;DHT22;49084;48.204;16.202;2023-03-23T01:53:21;5.70;99.90
62991;DHT22;49084;48.204;16.202;2023-03-23T01:55:48;5.70;99.90
62991;DHT22;49084;48.204;16.202;2023-03-23T01:58:19;5.70;99.90
62991;DHT22;49084;48.204;16.202;2023-03-23T02:00:46;5.60;99.90
62991;DHT22;49084;48.204;16.202;2023-03-23T02:03:14;5.60;99.90
62991;DHT22;49084;48.204;16.202;2023-03-23T02:05:42;5.60;99.90
62991;DHT22;49084;48.204;16.202;2023-03-23T02:08:09;5.60;99.90
62991;DHT22;49084;48.204;16.202;2023-03-23T02:10:36;5.60;99.90
62991;DHT22;49084;48.204;16.202;2023-03-23T02:13:04;5.60;99.90
62991;DHT22;49084;48.204;16.202;2023-03-23T02:15:45;5.50;99.90
62991;DHT22;49084;48.204;16.202;2023-03-23T02:18:28;5.50;99.90
62991;DHT22;49084;48.204;16.202;2023-03-23T02:35:03;5.30;99.90
62991;DHT22;49084;48.204;16.202;2023-03-23T02:37:38;5.20;99.90
62991;DHT22;49084;48.204;16.202;2023-03-23T02:40:14;5.20;99.90
62991;DHT22;49084;48.204;16.202;2023-03-23T02:42:45;5.20;99.90
62991;DHT22;49084;48.204;16.202;2023-03-23T02:45:14;5.20;99.90
62991;DHT22;49084;48.204;16.202;2023-03-23T02:47:41;5.20;99.90
62991;DHT22;49084;48.204;16.202;2023-03-23T02:50:11;5.20;99.90
62991;DHT22;49084;48.204;16.202;2023-03-23T02:52:40;5.10;99.90
62991;DHT22;49084;48.204;16.202;2023-03-23T02:55:07;5.10;99.90
62991;DHT22;49084;48.204;16.202;2023-03-23T02:57:34;5.10;99.90
62991;DHT22;49084;48.204;16.202;2023-03-23T03:00:00;5.10;99.90
62991;DHT22;49084;48.204;16.202;2023-03-23T03:02:36;5.10;99.90
62991;DHT22;49084;48.204;16.202;2023-03-23T03:13:50;5.00;99.90
62991;DHT22;49084;48.204;16.202;2023-03-23T03:19:12;5.00;99.90
62991;DHT22;49084;48.204;16.202;2023-03-23T03:21:42;5.00;99.90
62991;DHT22;49084;48.204;16.202;2023-03-23T03:24:10;5.00;99.90
62991;DHT22;49084;48.204;16.202;2023-03-23T03:26:40;5.00;99.90
62991;DHT22;49084;48.204;16.202;2023-03-23T03:29:11;5.00;99.90
62991;DHT22;49084;48.204;16.202;2023-03-23T03:31:39;5.00;99.90
62991;DHT22;49084;48.204;16.202;2023-03-23T03:34:11;5.00;99.90
62991;DHT22;49084;48.204;16.202;2023-03-23T03:36:37;5.00;99.90
62991;DHT22;49084;48.204;16.202;2023-03-23T03:39:05;4.90;99.90
62991;DHT22;49084;48.204;16.202;2023-03-23T03:41:34;4.90;99.90
62991;DHT22;49084;48.204;16.202;2023-03-23T03:44:00;4.90;99.90
62991;DHT22;49084;48.204;16.202;2023-03-23T03:46:26;4.90;99.90
62991;DHT22;49084;48.204;16.202;2023-03-23T03:48:55;4.90;99.90
62991;DHT22;49084;48.204;16.202;2023-03-23T03:51:22;4.90;99.90
62991;DHT22;49084;48.204;16.202;2023-03-23T03:53:48;4.90;99.90
62991;DHT22;49084;48.204;16.202;2023-03-23T03:56:14;4.90;99.90
62991;DHT22;49084;48.204;16.202;2023-03-23T03:58:40;4.90;99.90
62991;DHT22;49084;48.204;16.202;2023-03-23T04:01:09;4.90;99.90
62991;DHT22;49084;48.204;16.202;2023-03-23T04:03:36;4.90;99.90
62991;DHT22;49084;48.204;16.202;2023-03-23T04:06:03;4.90;99.90
62991;DHT22;49084;48.204;16.202;2023-03-23T04:08:28;4.90;99.90
62991;DHT22;49084;48.204;16.202;2023-03-23T04:10:55;4.80;99.90
62991;DHT22;49084;48.204;16.202;2023-03-23T04:13:21;4.80;99.90
62991;DHT22;49084;48.204;16.202;2023-03-23T04:15:47;4.80;99.90
62991;DHT22;49084;48.204;16.202;2023-03-23T04:18:15;4.80;99.90
62991;DHT22;49084;48.204;16.202;2023-03-23T04:20:46;4.80;99.90
62991;DHT22;49084;48.204;16.202;2023-03-23T04:23:13;4.70;99.90
62991;DHT22;49084;48.204;16.202;2023-03-23T04:25:39;4.70;99.90
62991;DHT22;49084;48.204;16.202;2023-03-23T04:28:07;4.70;99.90
62991;DHT22;49084;48.204;16.202;2023-03-23T04:30:35;4.70;99.90
62991;DHT22;49084;48.204;16.202;2023-03-23T04:33:02;4.60;99.90
62991;DHT22;49084;48.204;16.202;2023-03-23T04:35:30;4.60;99.90
62991;DHT22;49084;48.204;16.202;2023-03-23T04:37:56;4.60;99.90
62991;DHT22;49084;48.204;16.202;2023-03-23T04:40:23;4.60;99.90
62991;DHT22;49084;48.204;16.202;2023-03-23T04:42:49;4.60;99.90
62991;DHT22;49084;48.204;16.202;2023-03-23T04:45:19;4.60;99.90
62991;DHT22;49084;48.204;16.202;2023-03-23T04:47:51;4.60;99.90
62991;DHT22;49084;48.204;16.202;2023-03-23T04:50:26;4.60;99.90
62991;DHT22;49084;48.204;16.202;2023-03-23T04:52:52;4.60;99.90
62991;DHT22;49084;48.204;16.202;2023-03-23T04:55:19;4.60;99.90
62991;DHT22;49084;48.204;16.202;2023-03-23T04:57:47;4.60;99.90
62991;DHT22;49084;48.204;16.202;2023-03-23T05:00:13;4.60;99.90
62991;DHT22;49084;48.204;16.202;2023-03-23T05:02:46;4.70;99.90
62991;DHT22;49084;48.204;16.202;2023-03-23T05:05:19;4.60;99.90
62991;DHT22;49084;48.204;16.202;2023-03-23T05:07:45;4.70;99.90
62991;DHT22;49084;48.204;16.202;2023-03-23T05:10:12;4.70;99.90
62991;DHT22;49084;48.204;16.202;2023-03-23T05:12:38;4.70;99.90
62991;DHT22;49084;48.204;16.202;2023-03-23T05:15:05;4.70;99.90
62991;DHT22;49084;48.204;16.202;2023-03-23T05:17:33;4.80;99.90
62991;DHT22;49084;48.204;16.202;2023-03-23T05:19:59;4.80;99.90
62991;DHT22;49084;48.204;16.202;2023-03-23T05:22:28;4.80;99.90
62991;DHT22;49084;48.204;16.202;2023-03-23T05:24:58;4.90;99.90
62991;DHT22;49084;48.204;16.202;2023-03-23T05:27:24;4.90;99.90
62991;DHT22;49084;48.204;16.202;2023-03-23T05:29:53;5.00;99.90
62991;DHT22;49084;48.204;16.202;2023-03-23T05:32:19;5.10;99.90
62991;DHT22;49084;48.204;16.202;2023-03-23T05:34:44;5.10;99.90
62991;DHT22;49084;48.204;16.202;2023-03-23T05:37:12;5.20;99.90
62991;DHT22;49084;48.204;16.202;2023-03-23T05:39:39;5.30;99.90
62991;DHT22;49084;48.204;16.202;2023-03-23T05:42:05;5.40;99.90
62991;DHT22;49084;48.204;16.202;2023-03-23T05:44:31;5.50;99.90
62991;DHT22;49084;48.204;16.202;2023-03-23T05:46:57;5.60;99.90
62991;DHT22;49084;48.204;16.202;2023-03-23T05:49:23;5.70;99.90
62991;DHT22;49084;48.204;16.202;2023-03-23T05:51:49;5.80;99.90
62991;DHT22;49084;48.204;16.202;2023-03-23T05:54:16;5.90;99.90
62991;DHT22;49084;48.204;16.202;2023-03-23T05:56:42;6.00;99.90
62991;DHT22;49084;48.204;16.202;2023-03-23T05:59:08;6.10;99.90
62991;DHT22;49084;48.204;16.202;2023-03-23T06:01:36;6.20;99.90
62991;DHT22;49084;48.204;16.202;2023-03-23T06:04:01;6.30;99.90
62991;DHT22;49084;48.204;16.202;2023-03-23T06:06:28;6.40;99.90
62991;DHT22;49084;48.204;16.202;2023-03-23T06:08:58;6.50;99.90
62991;DHT22;49084;48.204;16.202;2023-03-23T06:11:24;6.60;99.90
62991;DHT22;49084;48.204;16.202;2023-03-23T06:13:51;6.70;99.90
62991;DHT22;49084;48.204;16.202;2023-03-23T06:16:18;6.80;99.90
62991;DHT22;49084;48.204;16.202;2023-03-23T06:18:44;6.90;99.90
62991;DHT22;49084;48.204;16.202;2023-03-23T06:21:11;7.00;99.90
62991;DHT22;49084;48.204;16.202;2023-03-23T06:23:37;7.10;99.90
62991;DHT22;49084;48.204;16.202;2023-03-23T06:26:06;7.20;99.90
62991;DHT22;49084;48.204;16.202;2023-03-23T06:28:32;7.40;99.90
62991;DHT22;49084;48.204;16.202;2023-03-23T06:31:00;7.60;99.90
62991;DHT22;49084;48.204;16.202;2023-03-23T06:33:26;7.90;99.90
62991;DHT22;49084;48.204;16.202;2023-03-23T06:35:52;8.40;99.90
62991;DHT22;49084;48.204;16.202;2023-03-23T06:38:18;8.80;99.90
62991;DHT22;49084;48.204;16.202;2023-03-23T06:40:43;9.10;99.90
62991;DHT22;49084;48.204;16.202;2023-03-23T06:43:12;9.40;99.90
62991;DHT22;49084;48.204;16.202;2023-03-23T06:45:38;9.70;99.90
62991;DHT22;49084;48.204;16.202;2023-03-23T06:48:03;9.90;99.90
62991;DHT22;49084;48.204;16.202;2023-03-23T06:50:29;10.00;99.90
62991;DHT22;49084;48.204;16.202;2023-03-23T06:52:55;10.10;99.90
62991;DHT22;49084;48.204;16.202;2023-03-23T06:55:21;10.00;99.90
62991;DHT22;49084;48.204;16.202;2023-03-23T06:57:47;9.90;99.90
62991;DHT22;49084;48.204;16.202;2023-03-23T07:00:13;9.90;99.90
62991;DHT22;49084;48.204;16.202;2023-03-23T07:02:40;10.00;99.90
62991;DHT22;49084;48.204;16.202;2023-03-23T07:05:07;10.00;99.90
62991;DHT22;49084;48.204;16.202;2023-03-23T07:07:35;10.10;99.90
62991;DHT22;49084;48.204;16.202;2023-03-23T07:10:02;10.10;99.90
62991;DHT22;49084;48.204;16.202;2023-03-23T07:12:28;10.00;99.90
62991;DHT22;49084;48.204;16.202;2023-03-23T07:14:54;10.00;99.90
62991;DHT22;49084;48.204;16.202;2023-03-23T07:17:21;10.10;99.90
62991;DHT22;49084;48.204;16.202;2023-03-23T07:19:46;10.20;99.90
62991;DHT22;49084;48.204;16.202;2023-03-23T07:22:12;10.30;99.90
62991;DHT22;49084;48.204;16.202;2023-03-23T07:24:38;10.30;99.90
62991;DHT22;49084;48.204;16.202;2023-03-23T07:27:03;10.40;99.90
62991;DHT22;49084;48.204;16.202;2023-03-23T07:29:29;10.40;99.90
62991;DHT22;49084;48.204;16.202;2023-03-23T07:31:56;10.40;99.90
62991;DHT22;49084;48.204;16.202;2023-03-23T07:34:22;10.40;99.90
62991;DHT22;49084;48.204;16.202;2023-03-23T07:36:48;10.50;99.90
62991;DHT22;49084;48.204;16.202;2023-03-23T07:39:13;10.60;99.90
62991;DHT22;49084;48.204;16.202;2023-03-23T07:41:39;10.80;99.90
62991;DHT22;49084;48.204;16.202;2023-03-23T07:44:05;11.10;99.90
62991;DHT22;49084;48.204;16.202;2023-03-23T07:46:32;11.30;99.90
62991;DHT22;49084;48.204;16.202;2023-03-23T07:48:58;11.60;99.90
62991;DHT22;49084;48.204;16.202;2023-03-23T07:51:24;11.90;99.90
62991;DHT22;49084;48.204;16.202;2023-03-23T07:53:50;12.10;99.90
62991;DHT22;49084;48.204;16.202;2023-03-23T07:56:17;12.40;99.90
62991;DHT22;49084;48.204;16.202;2023-03-23T07:58:45;12.50;99.90
62991;DHT22;49084;48.204;16.202;2023-03-23T08:01:11;12.70;99.90
62991;DHT22;49084;48.204;16.202;2023-03-23T08:03:37;12.90;99.90
62991;DHT22;49084;48.204;16.202;2023-03-23T08:06:04;12.80;99.90
62991;DHT22;49084;48.204;16.202;2023-03-23T08:08:30;12.90;99.90
62991;DHT22;49084;48.204;16.202;2023-03-23T08:10:57;13.00;99.90
62991;DHT22;49084;48.204;16.202;2023-03-23T08:13:23;13.10;99.90
62991;DHT22;49084;48.204;16.202;2023-03-23T08:15:49;13.20;99.90
62991;DHT22;49084;48.204;16.202;2023-03-23T08:18:16;13.20;99.90
62991;DHT22;49084;48.204;16.202;2023-03-23T08:20:43;13.20;99.90
62991;DHT22;49084;48.204;16.202;2023-03-23T08:23:10;13.10;99.90
62991;DHT22;49084;48.204;16.202;2023-03-23T08:25:36;13.10;99.90
62991;DHT22;49084;48.204;16.202;2023-03-23T08:28:02;13.10;99.90
62991;DHT22;49084;48.204;16.202;2023-03-23T08:30:29;13.10;99.90
62991;DHT22;49084;48.204;16.202;2023-03-23T08:32:58;13.10;99.90
62991;DHT22;49084;48.204;16.202;2023-03-23T08:35:25;13.10;99.90
62991;DHT22;49084;48.204;16.202;2023-03-23T08:37:51;13.20;99.90
62991;DHT22;49084;48.204;16.202;2023-03-23T08:40:20;13.70;99.90
62991;DHT22;49084;48.204;16.202;2023-03-23T08:42:48;14.40;99.90
62991;DHT22;49084;48.204;16.202;2023-03-23T08:45:17;15.20;98.50
62991;DHT22;49084;48.204;16.202;2023-03-23T08:47:44;16.30;95.20
62991;DHT22;49084;48.204;16.202;2023-03-23T08:50:13;17.30;91.80
62991;DHT22;49084;48.204;16.202;2023-03-23T08:52:39;18.20;82.70
62991;DHT22;49084;48.204;16.202;2023-03-23T08:55:05;18.60;76.40
62991;DHT22;49084;48.204;16.202;2023-03-23T08:57:34;19.10;73.20
62991;DHT22;49084;48.204;16.202;2023-03-23T09:00:05;19.70;67.20
62991;DHT22;49084;48.204;16.202;2023-03-23T09:02:45;19.90;65.20
62991;DHT22;49084;48.204;16.202;2023-03-23T09:05:11;20.30;63.40
62991;DHT22;49084;48.204;16.202;2023-03-23T09:07:38;19.30;59.90
62991;DHT22;49084;48.204;16.202;2023-03-23T09:10:05;20.70;59.70
62991;DHT22;49084;48.204;16.202;2023-03-23T09:12:31;20.50;59.60
62991;DHT22;49084;48.204;16.202;2023-03-23T09:14:56;20.80;59.30
62991;DHT22;49084;48.204;16.202;2023-03-23T09:17:22;21.30;58.30
62991;DHT22;49084;48.204;16.202;2023-03-23T09:19:48;22.10;56.50
62991;DHT22;49084;48.204;16.202;2023-03-23T09:22:13;22.80;54.20
62991;DHT22;49084;48.204;16.202;2023-03-23T09:24:40;23.20;51.80
62991;DHT22;49084;48.204;16.202;2023-03-23T09:27:07;22.70;52.20
62991;DHT22;49084;48.204;16.202;2023-03-23T09:29:32;23.00;51.50
62991;DHT22;49084;48.204;16.202;2023-03-23T09:31:58;23.20;50.50
62991;DHT22;49084;48.204;16.202;2023-03-23T09:34:25;23.60;49.60
62991;DHT22;49084;48.204;16.202;2023-03-23T09:36:51;24.00;47.80
62991;DHT22;49084;48.204;16.202;2023-03-23T09:39:17;24.30;46.40
62991;DHT22;49084;48.204;16.202;2023-03-23T09:45:14;24.90;44.80
62991;DHT22;49084;48.204;16.202;2023-03-23T09:50:42;25.80;42.50
62991;DHT22;49084;48.204;16.202;2023-03-23T09:53:22;26.00;41.80
62991;DHT22;49084;48.204;16.202;2023-03-23T09:55:49;25.50;41.40
62991;DHT22;49084;48.204;16.202;2023-03-23T10:01:10;24.80;42.60
62991;DHT22;49084;48.204;16.202;2023-03-23T10:03:43;24.00;43.20
62991;DHT22;49084;48.204;16.202;2023-03-23T10:06:16;24.20;43.90
62991;DHT22;49084;48.204;16.202;2023-03-23T10:08:53;25.00;42.40
62991;DHT22;49084;48.204;16.202;2023-03-23T10:11:50;25.10;41.70
62991;DHT22;49084;48.204;16.202;2023-03-23T10:22:37;26.30;39.10
62991;DHT22;49084;48.204;16.202;2023-03-23T10:27:59;25.00;41.40
62991;DHT22;49084;48.204;16.202;2023-03-23T10:30:36;25.30;41.10
62991;DHT22;49084;48.204;16.202;2023-03-23T10:35:47;26.70;40.10
62991;DHT22;49084;48.204;16.202;2023-03-23T10:38:19;27.30;38.70
62991;DHT22;49084;48.204;16.202;2023-03-23T10:40:56;27.50;38.30
62991;DHT22;49084;48.204;16.202;2023-03-23T10:43:24;27.80;38.00
62991;DHT22;49084;48.204;16.202;2023-03-23T10:45:57;28.00;37.60
62991;DHT22;49084;48.204;16.202;2023-03-23T10:48:31;28.10;37.50
62991;DHT22;49084;48.204;16.202;2023-03-23T10:51:01;28.30;37.40
62991;DHT22;49084;48.204;16.202;2023-03-23T10:53:42;28.00;37.80
62991;DHT22;49084;48.204;16.202;2023-03-23T10:56:34;28.10;37.30
62991;DHT22;49084;48.204;16.202;2023-03-23T10:59:21;28.10;37.60
62991;DHT22;49084;48.204;16.202;2023-03-23T11:01:55;28.30;37.30
62991;DHT22;49084;48.204;16.202;2023-03-23T11:04:22;28.30;37.60
62991;DHT22;49084;48.204;16.202;2023-03-23T11:06:51;29.20;36.80
62991;DHT22;49084;48.204;16.202;2023-03-23T11:09:32;29.60;36.60
62991;DHT22;49084;48.204;16.202;2023-03-23T11:11:58;29.50;35.80
62991;DHT22;49084;48.204;16.202;2023-03-23T11:14:25;29.30;35.70
62991;DHT22;49084;48.204;16.202;2023-03-23T11:16:57;29.10;36.10
62991;DHT22;49084;48.204;16.202;2023-03-23T11:19:36;29.00;35.80
62991;DHT22;49084;48.204;16.202;2023-03-23T11:22:34;28.50;36.20
62991;DHT22;49084;48.204;16.202;2023-03-23T11:25:04;28.50;36.40
62991;DHT22;49084;48.204;16.202;2023-03-23T11:27:31;27.90;37.00
62991;DHT22;49084;48.204;16.202;2023-03-23T11:30:18;27.70;36.60
62991;DHT22;49084;48.204;16.202;2023-03-23T11:32:46;27.00;36.80
62991;DHT22;49084;48.204;16.202;2023-03-23T11:35:19;26.50;37.60
62991;DHT22;49084;48.204;16.202;2023-03-23T11:37:54;26.00;37.90
62991;DHT22;49084;48.204;16.202;2023-03-23T11:40:23;26.00;38.40
62991;DHT22;49084;48.204;16.202;2023-03-23T11:43:17;25.80;38.20
62991;DHT22;49084;48.204;16.202;2023-03-23T11:46:11;25.40;39.00
62991;DHT22;49084;48.204;16.202;2023-03-23T11:49:00;25.00;39.70
62991;DHT22;49084;48.204;16.202;2023-03-23T11:51:36;24.50;40.50
62991;DHT22;49084;48.204;16.202;2023-03-23T11:56:37;24.00;42.20
62991;DHT22;49084;48.204;16.202;2023-03-23T11:59:16;23.60;42.50
62991;DHT22;49084;48.204;16.202;2023-03-23T12:10:27;22.40;45.30
62991;DHT22;49084;48.204;16.202;2023-03-23T12:15:51;22.30;45.80
62991;DHT22;49084;48.204;16.202;2023-03-23T12:20:59;22.20;45.90
62991;DHT22;49084;48.204;16.202;2023-03-23T12:26:37;22.30;45.80
62991;DHT22;49084;48.204;16.202;2023-03-23T12:40:20;22.40;45.70
62991;DHT22;49084;48.204;16.202;2023-03-23T12:48:12;22.50;46.10
62991;DHT22;49084;48.204;16.202;2023-03-23T12:51:00;22.60;45.30
62991;DHT22;49084;48.204;16.202;2023-03-23T12:53:34;22.40;45.50
62991;DHT22;49084;48.204;16.202;2023-03-23T12:56:20;22.40;44.50
62991;DHT22;49084;48.204;16.202;2023-03-23T12:58:53;22.30;45.00
62991;DHT22;49084;48.204;16.202;2023-03-23T13:01:25;22.50;44.90
62991;DHT22;49084;48.204;16.202;2023-03-23T13:04:14;22.90;44.70
62991;DHT22;49084;48.204;16.202;2023-03-23T13:06:44;23.90;43.60
62991;DHT22;49084;48.204;16.202;2023-03-23T13:11:51;25.50;41.30
62991;DHT22;49084;48.204;16.202;2023-03-23T13:18:04;27.80;38.20
62991;DHT22;49084;48.204;16.202;2023-03-23T13:23:22;29.20;35.90
62991;DHT22;49084;48.204;16.202;2023-03-23T13:26:01;28.10;35.80
62991;DHT22;49084;48.204;16.202;2023-03-23T13:28:31;27.00;36.80
62991;DHT22;49084;48.204;16.202;2023-03-23T13:33:28;26.00;37.90
62991;DHT22;49084;48.204;16.202;2023-03-23T13:35:54;25.90;38.60
62991;DHT22;49084;48.204;16.202;2023-03-23T13:38:26;26.70;37.80
62991;DHT22;49084;48.204;16.202;2023-03-23T13:40:53;27.60;36.90
62991;DHT22;49084;48.204;16.202;2023-03-23T13:43:32;26.30;36.70
62991;DHT22;49084;48.204;16.202;2023-03-23T13:48:49;24.60;39.20
62991;DHT22;49084;48.204;16.202;2023-03-23T13:57:01;25.00;38.80
62991;DHT22;49084;48.204;16.202;2023-03-23T13:59:48;25.10;38.30
62991;DHT22;49084;48.204;16.202;2023-03-23T14:02:34;24.50;38.10
62991;DHT22;49084;48.204;16.202;2023-03-23T14:05:10;23.80;39.20
62991;DHT22;49084;48.204;16.202;2023-03-23T14:07:59;23.50;40.10
62991;DHT22;49084;48.204;16.202;2023-03-23T14:10:41;24.00;40.10
62991;DHT22;49084;48.204;16.202;2023-03-23T14:13:21;24.50;40.70
62991;DHT22;49084;48.204;16.202;2023-03-23T14:15:58;24.70;39.70
62991;DHT22;49084;48.204;16.202;2023-03-23T14:18:29;25.20;40.00
62991;DHT22;49084;48.204;16.202;2023-03-23T14:20:55;25.20;40.20
62991;DHT22;49084;48.204;16.202;2023-03-23T14:23:22;24.90;39.90
62991;DHT22;49084;48.204;16.202;2023-03-23T14:25:56;24.50;40.70
62991;DHT22;49084;48.204;16.202;2023-03-23T14:28:23;24.00;41.40
62991;DHT22;49084;48.204;16.202;2023-03-23T14:30:53;23.60;41.90
62991;DHT22;49084;48.204;16.202;2023-03-23T14:33:20;23.30;42.50
62991;DHT22;49084;48.204;16.202;2023-03-23T14:35:46;23.00;42.60
62991;DHT22;49084;48.204;16.202;2023-03-23T14:38:22;23.00;42.70
62991;DHT22;49084;48.204;16.202;2023-03-23T14:40:54;23.30;42.40
62991;DHT22;49084;48.204;16.202;2023-03-23T14:43:25;23.60;41.60
62991;DHT22;49084;48.204;16.202;2023-03-23T14:45:56;23.90;41.50
62991;DHT22;49084;48.204;16.202;2023-03-23T14:48:24;24.70;41.10
62991;DHT22;49084;48.204;16.202;2023-03-23T14:51:01;25.90;39.90
62991;DHT22;49084;48.204;16.202;2023-03-23T14:53:38;27.00;38.70
62991;DHT22;49084;48.204;16.202;2023-03-23T14:56:15;27.30;38.00
62991;DHT22;49084;48.204;16.202;2023-03-23T14:58:48;27.10;37.60
62991;DHT22;49084;48.204;16.202;2023-03-23T15:01:27;27.30;37.50
62991;DHT22;49084;48.204;16.202;2023-03-23T15:06:21;26.80;37.70
62991;DHT22;49084;48.204;16.202;2023-03-23T15:08:49;25.60;38.30
62991;DHT22;49084;48.204;16.202;2023-03-23T15:13:45;23.90;41.40
62991;DHT22;49084;48.204;16.202;2023-03-23T15:16:24;23.50;42.20
62991;DHT22;49084;48.204;16.202;2023-03-23T15:18:56;23.30;41.80
62991;DHT22;49084;48.204;16.202;2023-03-23T15:21:27;22.70;42.40
62991;DHT22;49084;48.204;16.202;2023-03-23T15:23:53;22.30;42.60
62991;DHT22;49084;48.204;16.202;2023-03-23T15:26:29;22.10;42.90
62991;DHT22;49084;48.204;16.202;2023-03-23T15:31:55;21.70;42.80
62991;DHT22;49084;48.204;16.202;2023-03-23T15:34:32;21.60;43.30
62991;DHT22;49084;48.204;16.202;2023-03-23T15:37:04;21.50;44.00
62991;DHT22;49084;48.204;16.202;2023-03-23T15:39:31;21.30;43.50
62991;DHT22;49084;48.204;16.202;2023-03-23T15:41:59;21.20;43.70
62991;DHT22;49084;48.204;16.202;2023-03-23T15:44:33;21.10;43.90
62991;DHT22;49084;48.204;16.202;2023-03-23T15:47:18;21.00;44.30
62991;DHT22;49084;48.204;16.202;2023-03-23T15:49:46;21.00;44.70
62991;DHT22;49084;48.204;16.202;2023-03-23T15:52:13;21.00;45.00
62991;DHT22;49084;48.204;16.202;2023-03-23T15:54:47;20.90;45.10
62991;DHT22;49084;48.204;16.202;2023-03-23T15:57:12;20.90;45.70
62991;DHT22;49084;48.204;16.202;2023-03-23T15:59:38;20.70;45.70
62991;DHT22;49084;48.204;16.202;2023-03-23T16:02:04;20.70;46.10
62991;DHT22;49084;48.204;16.202;2023-03-23T16:04:30;20.60;46.10
62991;DHT22;49084;48.204;16.202;2023-03-23T16:06:56;20.50;46.60
62991;DHT22;49084;48.204;16.202;2023-03-23T16:09:23;20.40;47.20
62991;DHT22;49084;48.204;16.202;2023-03-23T16:11:49;20.30;47.00
62991;DHT22;49084;48.204;16.202;2023-03-23T16:14:15;20.20;47.00
62991;DHT22;49084;48.204;16.202;2023-03-23T16:16:44;20.20;47.20
62991;DHT22;49084;48.204;16.202;2023-03-23T16:19:12;20.20;47.80
62991;DHT22;49084;48.204;16.202;2023-03-23T16:21:38;20.00;49.50
62991;DHT22;49084;48.204;16.202;2023-03-23T16:24:05;19.90;50.10
62991;DHT22;49084;48.204;16.202;2023-03-23T16:26:31;19.80;50.30
62991;DHT22;49084;48.204;16.202;2023-03-23T16:28:56;19.60;51.20
62991;DHT22;49084;48.204;16.202;2023-03-23T16:31:22;19.40;51.80
62991;DHT22;49084;48.204;16.202;2023-03-23T16:33:48;19.30;52.60
62991;DHT22;49084;48.204;16.202;2023-03-23T16:36:14;19.10;53.80
62991;DHT22;49084;48.204;16.202;2023-03-23T16:38:40;18.90;54.50
62991;DHT22;49084;48.204;16.202;2023-03-23T16:41:07;18.70;54.50
62991;DHT22;49084;48.204;16.202;2023-03-23T16:43:33;18.60;54.90
62991;DHT22;49084;48.204;16.202;2023-03-23T16:46:00;18.40;55.80
62991;DHT22;49084;48.204;16.202;2023-03-23T16:48:26;18.20;56.50
62991;DHT22;49084;48.204;16.202;2023-03-23T16:50:52;18.00;57.10
62991;DHT22;49084;48.204;16.202;2023-03-23T16:53:19;17.80;56.80
62991;DHT22;49084;48.204;16.202;2023-03-23T16:55:45;17.70;57.50
62991;DHT22;49084;48.204;16.202;2023-03-23T16:58:14;17.50;57.80
62991;DHT22;49084;48.204;16.202;2023-03-23T17:00:40;17.40;58.60
62991;DHT22;49084;48.204;16.202;2023-03-23T17:03:06;17.20;59.00
62991;DHT22;49084;48.204;16.202;2023-03-23T17:05:34;17.20;59.10
62991;DHT22;49084;48.204;16.202;2023-03-23T17:08:00;17.00;59.70
62991;DHT22;49084;48.204;16.202;2023-03-23T17:10:27;16.90;60.20
62991;DHT22;49084;48.204;16.202;2023-03-23T17:12:54;16.70;60.60
62991;DHT22;49084;48.204;16.202;2023-03-23T17:15:20;16.60;61.10
62991;DHT22;49084;48.204;16.202;2023-03-23T17:17:46;16.50;61.30
62991;DHT22;49084;48.204;16.202;2023-03-23T17:20:12;16.30;62.00
62991;DHT22;49084;48.204;16.202;2023-03-23T17:22:39;16.20;62.60
62991;DHT22;49084;48.204;16.202;2023-03-23T17:25:05;16.10;63.60
62991;DHT22;49084;48.204;16.202;2023-03-23T17:27:32;15.90;64.00
62991;DHT22;49084;48.204;16.202;2023-03-23T17:29:58;15.80;64.90